Time,TemperatureF,DewpointF,PressureIn,WindDirection,WindDirectionDegrees,WindSpeedMPH,WindSpeedGustMPH,Humidity,HourlyPrecipIn,Conditions,Clouds,dailyrainin,SoftwareType,DateUTC
2013-10-25 00:00:00,36.8,28.6,29.89,NW,304,0.1,1.2,72,0.00,BKN,,0.00,WeatherDisplay:10.37,2013-10-25 04:00:00,
2013-10-25 00:01:00,36.8,28.6,29.89,NW,304,0.2,1.2,72,0.00,BKN,,0.00,WeatherDisplay:10.37,2013-10-25 04:01:00,
2013-10-25 00:06:00,36.3,28.5,29.89,NW,304,0.4,1.2,73,0.00,BKN,,0.00,WeatherDisplay:10.37,2013-10-25 04:06:00,
2013-10-25 00:11:00,35.9,28.1,29.89,NW,304,0.3,2.3,73,0.00,BKN,,0.00,WeatherDisplay:10.37,2013-10-25 04:11:00,
2013-10-25 00:16:00,35.5,28.0,29.89,NW,304,0.0,1.2,74,0.00,CLR,,0.00,WeatherDisplay:10.37,2013-10-25 04:16:00,
2013-10-25 00:21:00,35.3,28.2,29.89,NW,304,0.2,1.2,75,0.00,CLR,,0.00,WeatherDisplay:10.37,2013-10-25 04:21:00,
2013-10-25 00:26:00,35.2,28.1,29.89,NW,304,0.0,1.2,75,0.00,CLR,,0.00,WeatherDisplay:10.37,2013-10-25 04:26:00,
2013-10-25 00:31:00,35.1,28.3,29.89,NW,304,0.0,1.0,76,0.00,CLR,,0.00,WeatherDisplay:10.37,2013-10-25 04:31:00,
2013-10-25 00:36:00,35.0,28.5,29.90,NW,304,0.0,0.0,77,0.00,CLR,,0.00,WeatherDisplay:10.37,2013-10-25 04:36:00,
2013-10-25 00:41:00,35.1,28.9,29.90,NW,304,0.0,0.0,78,0.00,CLR,,0.00,WeatherDisplay:10.37,2013-10-25 04:41:00,
2013-10-25 00:46:00,35.6,29.4,29.90,West,265,0.4,3.5,78,0.00,CLR,,0.00,WeatherDisplay:10.37,2013-10-25 04:46:00,
2013-10-25 00:51:00,35.8,29.3,29.90,West,265,0.5,1.2,77,0.00,CLR,,0.00,WeatherDisplay:10.37,2013-10-25 04:51:00,
2013-10-25 00:56:00,35.6,29.1,29.90,WSW,246,0.3,2.3,77,0.00,CLR,,0.00,WeatherDisplay:10.37,2013-10-25 04:56:00,
2013-10-25 01:01:00,35.6,29.4,29.90,NNW,347,0.0,1.2,78,0.00,CLR,,0.00,WeatherDisplay:10.37,2013-10-25 05:01:00,
2013-10-25 01:06:00,35.9,30.0,29.91,NNW,347,0.0,1.2,79,0.00,CLR,,0.00,WeatherDisplay:10.37,2013-10-25 05:06:00,
2013-10-25 01:11:00,36.3,30.7,29.91,NNW,342,0.3,1.2,80,0.00,CLR,,0.00,WeatherDisplay:10.37,2013-10-25 05:11:00,
2013-10-25 01:16:00,37.1,31.2,29.91,WNW,288,2.3,3.5,79,0.00,CLR,,0.00,WeatherDisplay:10.37,2013-10-25 05:16:00,
2013-10-25 01:21:00,38.0,31.7,29.91,NW,317,0.8,1.2,78,0.00,CLR,,0.00,WeatherDisplay:10.37,2013-10-25 05:21:00,
2013-10-25 01:26:00,38.7,32.1,29.91,West,273,0.0,0.0,77,0.00,CLR,,0.00,WeatherDisplay:10.37,2013-10-25 05:26:00,
2013-10-25 01:31:00,39.0,32.1,29.91,NNW,348,0.0,1.2,76,0.00,CLR,,0.00,WeatherDisplay:10.37,2013-10-25 05:31:00,
2013-10-25 01:36:00,39.2,32.3,29.91,NNW,348,0.0,0.0,76,0.00,CLR,,0.00,WeatherDisplay:10.37,2013-10-25 05:36:00,
2013-10-25 01:41:00,39.3,32.4,29.91,WNW,298,0.0,1.2,76,0.00,CLR,,0.00,WeatherDisplay:10.37,2013-10-25 05:41:00,
2013-10-25 01:46:00,39.4,32.5,29.91,WNW,298,0.0,0.0,76,0.00,CLR,,0.00,WeatherDisplay:10.37,2013-10-25 05:46:00,
2013-10-25 01:51:00,39.3,32.4,29.91,WNW,298,0.0,0.0,76,0.00,CLR,,0.00,WeatherDisplay:10.37,2013-10-25 05:51:00,
2013-10-25 01:56:00,38.9,32.0,29.91,WNW,298,0.0,1.2,76,0.00,CLR,,0.00,WeatherDisplay:10.37,2013-10-25 05:56:00,
2013-10-25 02:01:00,38.5,31.9,29.91,WNW,298,0.2,1.2,77,0.00,CLR,,0.00,WeatherDisplay:10.37,2013-10-25 06:01:00,
2013-10-25 02:06:00,38.1,31.8,29.91,WNW,298,1.1,2.3,78,0.00,CLR,,0.00,WeatherDisplay:10.37,2013-10-25 06:06:00,
2013-10-25 02:11:00,37.4,31.5,29.91,WNW,298,0.4,2.3,79,0.00,CLR,,0.00,WeatherDisplay:10.37,2013-10-25 06:11:00,
2013-10-25 02:16:00,37.2,31.9,29.91,WNW,282,1.0,2.0,81,0.00,CLR,,0.00,WeatherDisplay:10.37,2013-10-25 06:16:00,
2013-10-25 02:21:00,37.5,32.5,29.92,WNW,282,0.0,1.2,82,0.00,CLR,,0.00,WeatherDisplay:10.37,2013-10-25 06:21:00,
2013-10-25 02:26:00,37.9,32.6,29.92,WNW,282,0.0,1.2,81,0.00,CLR,,0.00,WeatherDisplay:10.37,2013-10-25 06:26:00,
2013-10-25 02:31:00,38.0,32.4,29.91,WNW,282,0.5,2.3,80,0.00,CLR,,0.00,WeatherDisplay:10.37,2013-10-25 06:31:00,
2013-10-25 02:36:00,37.8,32.2,29.92,West,281,1.1,2.0,80,0.00,CLR,,0.00,WeatherDisplay:10.37,2013-10-25 06:36:00,
2013-10-25 02:41:00,37.4,32.1,29.92,NW,322,0.9,3.5,81,0.00,CLR,,0.00,WeatherDisplay:10.37,2013-10-25 06:41:00,
2013-10-25 02:46:00,37.3,32.3,29.92,NW,322,0.0,0.0,82,0.00,CLR,,0.00,WeatherDisplay:10.37,2013-10-25 06:46:00,
2013-10-25 02:51:00,37.2,32.2,29.92,NW,322,0.0,0.0,82,0.00,CLR,,0.00,WeatherDisplay:10.37,2013-10-25 06:51:00,
2013-10-25 02:56:00,37.2,32.5,29.92,NW,322,0.0,0.0,83,0.00,CLR,,0.00,WeatherDisplay:10.37,2013-10-25 06:56:00,
2013-10-25 03:01:00,37.2,32.5,29.92,NW,322,0.0,0.0,83,0.00,CLR,,0.00,WeatherDisplay:10.37,2013-10-25 07:01:00,
2013-10-25 03:06:00,36.8,31.8,29.92,NW,322,0.9,2.3,82,0.00,CLR,,0.00,WeatherDisplay:10.37,2013-10-25 07:06:00,
2013-10-25 03:11:00,36.4,31.7,29.92,NW,322,0.0,1.2,83,0.00,CLR,,0.00,WeatherDisplay:10.37,2013-10-25 07:11:00,
2013-10-25 03:16:00,36.0,31.6,29.92,NW,322,0.0,0.0,84,0.00,CLR,,0.00,WeatherDisplay:10.37,2013-10-25 07:16:00,
2013-10-25 03:21:00,35.9,31.8,29.91,NW,322,0.0,0.0,85,0.00,CLR,,0.00,WeatherDisplay:10.37,2013-10-25 07:21:00,
2013-10-25 03:26:00,35.9,31.8,29.92,NW,322,0.0,0.0,85,0.00,CLR,,0.00,WeatherDisplay:10.37,2013-10-25 07:26:00,
2013-10-25 03:31:00,35.7,31.6,29.92,NW,322,0.0,0.0,85,0.00,CLR,,0.00,WeatherDisplay:10.37,2013-10-25 07:31:00,
2013-10-25 03:36:00,35.7,31.9,29.92,NW,322,0.0,0.0,86,0.00,CLR,,0.00,WeatherDisplay:10.37,2013-10-25 07:36:00,
2013-10-25 03:41:00,35.7,31.9,29.92,NW,322,0.0,0.0,86,0.00,CLR,,0.00,WeatherDisplay:10.37,2013-10-25 07:41:00,
2013-10-25 03:46:00,35.6,31.8,29.92,NW,322,0.0,0.0,86,0.00,CLR,,0.00,WeatherDisplay:10.37,2013-10-25 07:46:00,
2013-10-25 03:51:00,35.6,31.8,29.92,NW,322,0.0,0.0,86,0.00,CLR,,0.00,WeatherDisplay:10.37,2013-10-25 07:51:00,
2013-10-25 03:56:00,35.5,31.7,29.92,NW,322,0.0,0.0,86,0.00,CLR,,0.00,WeatherDisplay:10.37,2013-10-25 07:56:00,
2013-10-25 04:01:00,35.5,31.7,29.92,NW,322,0.0,0.0,86,0.00,CLR,,0.00,WeatherDisplay:10.37,2013-10-25 08:01:00,
2013-10-25 04:06:00,35.4,31.9,29.93,NW,322,0.0,0.0,87,0.00,CLR,,0.00,WeatherDisplay:10.37,2013-10-25 08:06:00,
2013-10-25 04:11:00,35.3,31.8,29.93,NW,322,0.0,0.0,87,0.00,CLR,,0.00,WeatherDisplay:10.37,2013-10-25 08:11:00,
2013-10-25 04:16:00,35.1,31.6,29.93,NW,322,0.0,0.0,87,0.00,CLR,,0.00,WeatherDisplay:10.37,2013-10-25 08:16:00,
2013-10-25 04:21:00,34.7,31.2,29.93,NW,322,0.0,0.0,87,0.00,CLR,,0.00,WeatherDisplay:10.37,2013-10-25 08:21:00,
2013-10-25 04:26:00,34.4,31.2,29.93,NW,322,0.0,0.0,88,0.00,CLR,,0.00,WeatherDisplay:10.37,2013-10-25 08:26:00,
2013-10-25 04:31:00,34.3,31.1,29.94,NW,322,0.0,0.0,88,0.00,CLR,,0.00,WeatherDisplay:10.37,2013-10-25 08:31:00,
2013-10-25 04:36:00,34.2,31.3,29.94,NW,322,0.0,0.0,89,0.00,CLR,,0.00,WeatherDisplay:10.37,2013-10-25 08:36:00,
2013-10-25 04:41:00,34.0,31.1,29.94,NW,322,0.0,0.0,89,0.00,CLR,,0.00,WeatherDisplay:10.37,2013-10-25 08:41:00,
2013-10-25 04:46:00,33.8,30.6,29.94,NW,322,1.2,2.0,88,0.00,CLR,,0.00,WeatherDisplay:10.37,2013-10-25 08:46:00,
2013-10-25 04:51:00,33.3,30.4,29.94,NW,319,1.0,2.3,89,0.00,CLR,,0.00,WeatherDisplay:10.37,2013-10-25 08:51:00,
2013-10-25 04:56:00,33.0,30.1,29.94,NW,319,0.0,1.2,89,0.00,CLR,,0.00,WeatherDisplay:10.37,2013-10-25 08:56:00,
2013-10-25 05:01:00,32.8,30.2,29.95,NW,319,0.0,0.0,90,0.00,CLR,,0.00,WeatherDisplay:10.37,2013-10-25 09:01:00,
2013-10-25 05:06:00,32.6,30.0,29.95,NW,319,0.0,0.0,90,0.00,CLR,,0.00,WeatherDisplay:10.37,2013-10-25 09:06:00,
2013-10-25 05:11:00,32.4,30.1,29.95,NW,319,0.4,1.2,91,0.00,CLR,,0.00,WeatherDisplay:10.37,2013-10-25 09:11:00,
2013-10-25 05:16:00,32.2,29.9,29.95,NW,319,0.0,0.0,91,0.00,CLR,,0.00,WeatherDisplay:10.37,2013-10-25 09:16:00,
2013-10-25 05:21:00,32.1,29.8,29.95,NW,319,0.0,0.0,91,0.00,CLR,,0.00,WeatherDisplay:10.37,2013-10-25 09:21:00,
2013-10-25 05:26:00,31.9,29.6,29.95,NW,319,0.0,1.0,91,0.00,CLR,,0.00,WeatherDisplay:10.37,2013-10-25 09:26:00,
2013-10-25 05:31:00,31.7,29.4,29.96,West,279,0.0,1.2,91,0.00,CLR,,0.00,WeatherDisplay:10.37,2013-10-25 09:31:00,
2013-10-25 05:36:00,31.5,29.2,29.96,West,279,0.0,0.0,91,0.00,CLR,,0.00,WeatherDisplay:10.37,2013-10-25 09:36:00,
2013-10-25 05:41:00,31.4,29.1,29.96,West,279,0.0,0.0,91,0.00,CLR,,0.00,WeatherDisplay:10.37,2013-10-25 09:41:00,
2013-10-25 05:46:00,31.4,29.3,29.96,West,279,0.0,0.0,92,0.00,CLR,,0.00,WeatherDisplay:10.37,2013-10-25 09:46:00,
2013-10-25 05:51:00,31.4,29.3,29.96,West,279,0.0,0.0,92,0.00,CLR,,0.00,WeatherDisplay:10.37,2013-10-25 09:51:00,
2013-10-25 05:56:00,31.4,29.3,29.96,West,279,0.0,0.0,92,0.00,CLR,,0.00,WeatherDisplay:10.37,2013-10-25 09:56:00,
2013-10-25 06:03:00,31.5,29.4,29.97,West,279,0.0,0.0,92,0.00,CLR,,0.00,WeatherDisplay:10.37,2013-10-25 10:03:00,
2013-10-25 06:08:00,31.5,29.4,29.97,West,279,0.0,0.0,92,0.00,CLR,,0.00,WeatherDisplay:10.37,2013-10-25 10:08:00,
2013-10-25 06:13:00,31.5,29.4,29.97,West,279,0.0,0.0,92,0.00,CLR,,0.00,WeatherDisplay:10.37,2013-10-25 10:13:00,
2013-10-25 06:18:00,31.4,29.3,29.97,West,279,0.2,1.2,92,0.00,CLR,,0.00,WeatherDisplay:10.37,2013-10-25 10:18:00,
2013-10-25 06:23:00,31.3,29.2,29.97,West,279,0.0,1.2,92,0.00,CLR,,0.00,WeatherDisplay:10.37,2013-10-25 10:23:00,
2013-10-25 06:28:00,31.1,29.0,29.98,West,279,0.0,0.0,92,0.00,CLR,,0.00,WeatherDisplay:10.37,2013-10-25 10:28:00,
2013-10-25 06:33:00,31.0,28.9,29.98,West,279,0.0,0.0,92,0.00,CLR,,0.00,WeatherDisplay:10.37,2013-10-25 10:33:00,
2013-10-25 06:38:00,30.8,28.8,29.98,West,279,0.0,0.0,92,0.00,CLR,,0.00,WeatherDisplay:10.37,2013-10-25 10:38:00,
2013-10-25 06:43:00,30.8,29.0,29.98,West,279,0.0,0.0,93,0.00,CLR,,0.00,WeatherDisplay:10.37,2013-10-25 10:43:00,
2013-10-25 06:48:00,30.7,28.9,29.99,West,279,0.1,0.0,93,0.00,CLR,,0.00,WeatherDisplay:10.37,2013-10-25 10:48:00,
2013-10-25 06:53:00,30.6,28.6,29.99,West,279,0.0,0.0,92,0.00,CLR,,0.00,WeatherDisplay:10.37,2013-10-25 10:53:00,
2013-10-25 06:58:00,30.4,28.4,29.99,West,279,1.0,2.3,92,0.00,CLR,,0.00,WeatherDisplay:10.37,2013-10-25 10:58:00,
2013-10-25 07:03:00,30.1,28.3,29.99,West,279,0.7,1.2,93,0.00,CLR,,0.00,WeatherDisplay:10.37,2013-10-25 11:03:00,
2013-10-25 07:08:00,30.1,28.3,29.99,West,279,0.0,1.2,93,0.00,CLR,,0.00,WeatherDisplay:10.37,2013-10-25 11:08:00,
2013-10-25 07:13:00,30.1,28.3,29.99,West,279,0.0,0.0,93,0.00,CLR,,0.00,WeatherDisplay:10.37,2013-10-25 11:13:00,
2013-10-25 07:18:00,30.1,28.3,30.00,West,279,0.2,1.2,93,0.00,CLR,,0.00,WeatherDisplay:10.37,2013-10-25 11:18:00,
2013-10-25 07:23:00,30.0,28.2,30.00,West,279,0.0,0.0,93,0.00,CLR,,0.00,WeatherDisplay:10.37,2013-10-25 11:23:00,
2013-10-25 07:28:00,30.0,28.2,30.00,West,279,0.0,0.0,93,0.00,CLR,,0.00,WeatherDisplay:10.37,2013-10-25 11:28:00,
2013-10-25 07:33:00,29.9,28.1,30.00,West,279,0.0,0.0,93,0.00,CLR,,0.00,WeatherDisplay:10.37,2013-10-25 11:33:00,
2013-10-25 07:38:00,29.9,28.1,30.00,West,279,0.0,0.0,93,0.00,CLR,,0.00,WeatherDisplay:10.37,2013-10-25 11:38:00,
2013-10-25 07:43:00,29.9,28.1,30.00,West,279,0.0,0.0,93,0.00,CLR,,0.00,WeatherDisplay:10.37,2013-10-25 11:43:00,
2013-10-25 07:48:00,29.9,28.4,30.01,West,279,0.0,0.0,94,0.00,CLR,,0.00,WeatherDisplay:10.37,2013-10-25 11:48:00,
2013-10-25 07:53:00,30.1,28.6,30.01,West,279,0.0,0.0,94,0.00,CLR,,0.00,WeatherDisplay:10.37,2013-10-25 11:53:00,
2013-10-25 07:58:00,30.2,28.7,30.01,West,279,0.4,1.2,94,0.00,CLR,,0.00,WeatherDisplay:10.37,2013-10-25 11:58:00,
2013-10-25 08:03:00,30.4,28.9,30.01,West,279,0.1,1.2,94,0.00,CLR,,0.00,WeatherDisplay:10.37,2013-10-25 12:03:00,
2013-10-25 08:08:00,30.7,29.2,30.01,West,279,0.0,1.2,94,0.00,CLR,,0.00,WeatherDisplay:10.37,2013-10-25 12:08:00,
2013-10-25 08:13:00,31.1,29.6,30.01,West,279,0.0,0.0,94,0.00,CLR,,0.00,WeatherDisplay:10.37,2013-10-25 12:13:00,
2013-10-25 08:18:00,31.6,30.3,30.02,West,279,0.2,1.0,95,0.00,CLR,,0.00,WeatherDisplay:10.37,2013-10-25 12:18:00,
2013-10-25 08:23:00,32.0,30.7,30.02,West,279,1.5,2.3,95,0.00,CLR,,0.00,WeatherDisplay:10.37,2013-10-25 12:23:00,
2013-10-25 08:28:00,32.1,30.6,30.02,West,279,0.4,1.2,94,0.00,CLR,,0.00,WeatherDisplay:10.37,2013-10-25 12:28:00,
2013-10-25 08:33:00,32.4,30.9,30.02,West,278,0.1,1.2,94,0.00,CLR,,0.00,WeatherDisplay:10.37,2013-10-25 12:33:00,
2013-10-25 08:38:00,33.2,31.9,30.02,West,263,1.4,3.0,95,0.00,CLR,,0.00,WeatherDisplay:10.37,2013-10-25 12:38:00,
2013-10-25 08:43:00,34.5,33.2,30.02,WNW,303,1.7,3.5,95,0.00,CLR,,0.00,WeatherDisplay:10.37,2013-10-25 12:43:00,
2013-10-25 08:48:00,35.7,33.9,30.02,West,263,0.2,1.2,93,0.00,CLR,,0.00,WeatherDisplay:10.37,2013-10-25 12:48:00,
2013-10-25 08:53:00,36.7,34.0,30.02,West,279,0.7,3.5,90,0.00,CLR,,0.00,WeatherDisplay:10.37,2013-10-25 12:53:00,
2013-10-25 08:58:00,37.3,34.4,30.02,West,278,1.1,2.3,89,0.00,CLR,,0.00,WeatherDisplay:10.37,2013-10-25 12:58:00,
2013-10-25 09:03:00,38.3,34.5,30.02,WSW,246,0.9,4.6,86,0.00,CLR,,0.00,WeatherDisplay:10.37,2013-10-25 13:03:00,
2013-10-25 09:08:00,39.2,34.8,30.02,WSW,257,3.8,5.0,84,0.00,CLR,,0.00,WeatherDisplay:10.37,2013-10-25 13:08:00,
2013-10-25 09:13:00,39.9,34.9,30.02,West,267,3.5,4.6,82,0.00,CLR,,0.00,WeatherDisplay:10.37,2013-10-25 13:13:00,
2013-10-25 09:18:00,40.6,34.9,30.02,WSW,245,1.9,3.5,80,0.00,CLR,,0.00,WeatherDisplay:10.37,2013-10-25 13:18:00,
2013-10-25 09:23:00,41.3,35.3,30.02,WNW,293,2.1,7.0,79,0.00,CLR,,0.00,WeatherDisplay:10.37,2013-10-25 13:23:00,
2013-10-25 09:28:00,41.9,35.2,30.02,WNW,282,2.5,5.0,77,0.00,CLR,,0.00,WeatherDisplay:10.37,2013-10-25 13:28:00,
2013-10-25 09:33:00,42.4,35.0,30.02,West,277,2.5,4.6,75,0.00,CLR,,0.00,WeatherDisplay:10.37,2013-10-25 13:33:00,
2013-10-25 09:38:00,42.7,35.3,30.02,NE,44,2.9,3.5,75,0.00,CLR,,0.00,WeatherDisplay:10.37,2013-10-25 13:38:00,
2013-10-25 09:43:00,43.0,35.3,30.02,SW,222,2.3,5.8,74,0.00,CLR,,0.00,WeatherDisplay:10.37,2013-10-25 13:43:00,
2013-10-25 09:48:00,43.3,35.2,30.02,WNW,300,2.1,3.5,73,0.00,CLR,,0.00,WeatherDisplay:10.37,2013-10-25 13:48:00,
2013-10-25 09:53:00,43.7,35.3,30.02,WSW,256,2.0,3.5,72,0.00,CLR,,0.00,WeatherDisplay:10.37,2013-10-25 13:53:00,
2013-10-25 09:58:00,44.2,35.0,30.02,NNW,336,1.5,3.5,70,0.00,CLR,,0.00,WeatherDisplay:10.37,2013-10-25 13:58:00,
2013-10-25 10:03:00,44.6,34.7,30.02,NE,51,2.2,4.6,68,0.00,CLR,,0.00,WeatherDisplay:10.37,2013-10-25 14:03:00,
2013-10-25 10:08:00,45.0,35.1,30.02,NW,312,2.6,5.8,68,0.00,CLR,,0.00,WeatherDisplay:10.37,2013-10-25 14:08:00,
2013-10-25 10:13:00,45.2,34.9,30.02,West,263,2.5,4.6,67,0.00,CLR,,0.00,WeatherDisplay:10.37,2013-10-25 14:13:00,
2013-10-25 10:18:00,45.6,34.5,30.02,WNW,299,5.3,13.8,65,0.00,CLR,,0.00,WeatherDisplay:10.37,2013-10-25 14:18:00,
2013-10-25 10:23:00,45.9,34.4,30.02,WSW,242,2.6,5.0,64,0.00,CLR,,0.00,WeatherDisplay:10.37,2013-10-25 14:23:00,
2013-10-25 10:28:00,45.8,33.9,30.02,North,11,4.3,8.1,63,0.00,CLR,,0.00,WeatherDisplay:10.37,2013-10-25 14:28:00,
2013-10-25 10:33:00,45.2,32.9,30.03,West,279,4.0,8.1,62,0.00,CLR,,0.00,WeatherDisplay:10.37,2013-10-25 14:33:00,
2013-10-25 10:38:00,44.8,32.6,30.03,WNW,286,5.8,10.4,62,0.00,CLR,,0.00,WeatherDisplay:10.37,2013-10-25 14:38:00,
2013-10-25 10:43:00,44.3,32.5,30.02,West,259,2.9,5.8,63,0.00,CLR,,0.00,WeatherDisplay:10.37,2013-10-25 14:43:00,
2013-10-25 10:48:00,44.0,32.6,30.03,West,278,3.0,3.5,64,0.00,CLR,,0.00,WeatherDisplay:10.37,2013-10-25 14:48:00,
2013-10-25 10:53:00,43.9,32.5,30.03,West,273,3.9,6.9,64,0.00,CLR,,0.00,WeatherDisplay:10.37,2013-10-25 14:53:00,
2013-10-25 10:58:00,44.5,33.5,30.03,WSW,238,4.2,4.2,65,0.00,CLR,,0.00,WeatherDisplay:10.37,2013-10-25 14:58:00,
2013-10-25 11:03:00,45.4,32.3,30.02,West,281,4.7,5.8,60,0.00,OVC,,0.00,WeatherDisplay:10.37,2013-10-25 15:03:00,
2013-10-25 11:08:00,45.9,31.5,30.02,SW,234,6.7,11.5,57,0.00,OVC,,0.00,WeatherDisplay:10.37,2013-10-25 15:08:00,
2013-10-25 11:13:00,46.0,31.2,30.02,WSW,257,5.2,8.1,56,0.00,OVC,,0.00,WeatherDisplay:10.37,2013-10-25 15:13:00,
2013-10-25 11:18:00,46.0,30.7,30.02,West,264,4.2,8.1,55,0.00,OVC,,0.00,WeatherDisplay:10.37,2013-10-25 15:18:00,
2013-10-25 11:23:00,46.0,31.2,30.02,WNW,289,3.2,6.9,56,0.00,OVC,,0.00,WeatherDisplay:10.37,2013-10-25 15:23:00,
2013-10-25 11:28:00,46.1,31.3,30.02,NW,321,3.4,8.0,56,0.00,OVC,,0.00,WeatherDisplay:10.37,2013-10-25 15:28:00,
2013-10-25 11:33:00,46.1,30.4,30.03,West,273,3.1,5.8,54,0.00,OVC,,0.00,WeatherDisplay:10.37,2013-10-25 15:33:00,
2013-10-25 11:38:00,46.1,30.8,30.03,WNW,301,2.4,3.5,55,0.00,OVC,,0.00,WeatherDisplay:10.37,2013-10-25 15:38:00,
2013-10-25 11:43:00,46.1,31.3,30.03,SSE,162,2.5,4.6,56,0.00,OVC,,0.00,WeatherDisplay:10.37,2013-10-25 15:43:00,
2013-10-25 11:48:00,46.0,30.7,30.03,WNW,297,3.5,6.9,55,0.00,OVC,,0.00,WeatherDisplay:10.37,2013-10-25 15:48:00,
2013-10-25 11:53:00,45.8,30.1,30.03,NE,48,1.2,3.5,54,0.00,OVC,,0.00,WeatherDisplay:10.37,2013-10-25 15:53:00,
2013-10-25 11:58:00,45.9,30.2,30.03,NW,316,2.8,8.1,54,0.00,OVC,,0.00,WeatherDisplay:10.37,2013-10-25 15:58:00,
2013-10-25 12:03:00,45.9,30.2,30.03,SW,236,4.4,6.0,54,0.00,BKN,,0.00,WeatherDisplay:10.37,2013-10-25 16:03:00,
2013-10-25 12:08:00,45.8,30.1,30.03,SSW,204,2.2,4.6,54,0.00,BKN,,0.00,WeatherDisplay:10.37,2013-10-25 16:08:00,
2013-10-25 12:13:00,45.8,30.5,30.03,West,271,3.7,6.0,55,0.00,BKN,,0.00,WeatherDisplay:10.37,2013-10-25 16:13:00,
2013-10-25 12:18:00,45.6,30.8,30.03,WNW,288,1.8,2.3,56,0.00,BKN,,0.00,WeatherDisplay:10.37,2013-10-25 16:18:00,
2013-10-25 12:23:00,45.5,30.3,30.02,West,272,3.5,4.0,55,0.00,BKN,,0.00,WeatherDisplay:10.37,2013-10-25 16:23:00,
2013-10-25 12:28:00,45.6,30.3,30.02,NNE,24,3.0,5.8,55,0.00,BKN,,0.00,WeatherDisplay:10.37,2013-10-25 16:28:00,
2013-10-25 12:33:00,45.6,29.9,30.02,NW,318,3.1,9.2,54,0.00,BKN,,0.00,WeatherDisplay:10.37,2013-10-25 16:33:00,
2013-10-25 12:38:00,45.7,29.5,30.02,WSW,238,2.9,4.6,53,0.00,BKN,,0.00,WeatherDisplay:10.37,2013-10-25 16:38:00,
2013-10-25 12:43:00,45.9,30.2,30.02,WSW,245,1.0,2.3,54,0.00,BKN,,0.00,WeatherDisplay:10.37,2013-10-25 16:43:00,
2013-10-25 12:48:00,46.2,30.5,30.02,WNW,284,1.4,3.5,54,0.00,BKN,,0.00,WeatherDisplay:10.37,2013-10-25 16:48:00,
2013-10-25 12:53:00,46.4,30.2,30.02,NW,311,3.6,6.0,53,0.00,BKN,,0.00,WeatherDisplay:10.37,2013-10-25 16:53:00,
2013-10-25 12:58:00,46.3,30.1,30.02,West,260,2.0,3.5,53,0.00,BKN,,0.00,WeatherDisplay:10.37,2013-10-25 16:58:00,
2013-10-25 13:03:00,46.5,29.8,30.01,NW,321,2.8,4.0,52,0.00,OVC,,0.00,WeatherDisplay:10.37,2013-10-25 17:03:00,
2013-10-25 13:08:00,46.4,28.3,30.01,West,280,5.7,11.5,49,0.00,OVC,,0.00,WeatherDisplay:10.37,2013-10-25 17:08:00,
2013-10-25 13:13:00,46.6,28.4,30.01,NNW,340,5.3,12.7,49,0.00,OVC,,0.00,WeatherDisplay:10.37,2013-10-25 17:13:00,
2013-10-25 13:18:00,46.4,27.8,30.01,NW,313,2.3,12.7,48,0.00,OVC,,0.00,WeatherDisplay:10.37,2013-10-25 17:18:00,
2013-10-25 13:23:00,46.4,27.8,30.01,NW,314,5.2,8.1,48,0.00,OVC,,0.00,WeatherDisplay:10.37,2013-10-25 17:23:00,
2013-10-25 13:28:00,46.3,28.2,30.01,WNW,301,4.0,8.0,49,0.00,OVC,,0.00,WeatherDisplay:10.37,2013-10-25 17:28:00,
2013-10-25 13:33:00,46.3,28.2,30.01,NW,320,2.7,4.0,49,0.00,OVC,,0.00,WeatherDisplay:10.37,2013-10-25 17:33:00,
2013-10-25 13:38:00,46.6,28.4,30.01,NNE,17,1.5,3.5,49,0.00,OVC,,0.00,WeatherDisplay:10.37,2013-10-25 17:38:00,
2013-10-25 13:43:00,46.7,28.0,30.01,NW,315,1.5,3.5,48,0.00,OVC,,0.00,WeatherDisplay:10.37,2013-10-25 17:43:00,
2013-10-25 13:48:00,47.0,28.3,30.01,WNW,289,1.9,4.6,48,0.00,OVC,,0.00,WeatherDisplay:10.37,2013-10-25 17:48:00,
2013-10-25 13:53:00,46.7,27.5,30.01,SW,234,3.3,8.1,47,0.00,OVC,,0.00,WeatherDisplay:10.37,2013-10-25 17:53:00,
2013-10-25 13:58:00,46.7,28.0,30.01,West,259,3.3,10.4,48,0.00,OVC,,0.00,WeatherDisplay:10.37,2013-10-25 17:58:00,
2013-10-25 14:03:00,46.6,27.4,30.01,WSW,241,5.3,7.0,47,0.00,BKN,,0.00,WeatherDisplay:10.37,2013-10-25 18:03:00,
2013-10-25 14:08:00,47.3,28.1,30.01,West,267,3.6,9.2,47,0.00,BKN,,0.00,WeatherDisplay:10.37,2013-10-25 18:08:00,
2013-10-25 14:13:00,47.8,29.0,30.01,West,280,5.6,6.9,48,0.00,BKN,,0.00,WeatherDisplay:10.37,2013-10-25 18:13:00,
2013-10-25 14:18:00,47.8,28.5,30.01,NNE,30,2.0,3.5,47,0.00,BKN,,0.00,WeatherDisplay:10.37,2013-10-25 18:18:00,
2013-10-25 14:23:00,47.8,28.5,30.01,SW,223,3.3,7.0,47,0.00,BKN,,0.00,WeatherDisplay:10.37,2013-10-25 18:23:00,
2013-10-25 14:28:00,47.2,28.0,30.01,WNW,298,4.7,10.4,47,0.00,BKN,,0.00,WeatherDisplay:10.37,2013-10-25 18:28:00,
2013-10-25 14:33:00,47.0,27.8,30.01,North,5,1.6,9.2,47,0.00,BKN,,0.00,WeatherDisplay:10.37,2013-10-25 18:33:00,
2013-10-25 14:34:00,47.1,27.9,30.01,North,355,1.7,9.2,47,0.00,BKN,,0.00,WeatherDisplay:10.37,2013-10-25 18:34:00,
2013-10-25 14:39:00,47.0,27.8,30.01,West,279,2.9,5.8,47,0.00,BKN,,0.00,WeatherDisplay:10.37,2013-10-25 18:39:00,
2013-10-25 14:44:00,47.1,27.9,30.01,NNW,329,2.7,3.5,47,0.00,BKN,,0.00,WeatherDisplay:10.37,2013-10-25 18:44:00,
2013-10-25 14:49:00,47.2,28.0,30.01,WNW,286,2.8,3.5,47,0.00,BKN,,0.00,WeatherDisplay:10.37,2013-10-25 18:49:00,
2013-10-25 14:54:00,47.4,28.7,30.02,NNE,26,2.2,3.5,48,0.00,BKN,,0.00,WeatherDisplay:10.37,2013-10-25 18:54:00,
2013-10-25 14:59:00,47.9,28.1,30.01,WSW,243,3.8,5.8,46,0.00,BKN,,0.00,WeatherDisplay:10.37,2013-10-25 18:59:00,
2013-10-25 15:04:00,48.5,28.6,30.02,WSW,240,3.2,9.2,46,0.00,BKN,,0.00,WeatherDisplay:10.37,2013-10-25 19:04:00,
2013-10-25 15:09:00,48.8,28.9,30.01,SW,215,3.9,9.2,46,0.00,BKN,,0.00,WeatherDisplay:10.37,2013-10-25 19:09:00,
2013-10-25 15:14:00,48.8,28.9,30.02,WNW,292,2.7,9.2,46,0.00,BKN,,0.00,WeatherDisplay:10.37,2013-10-25 19:14:00,
2013-10-25 15:19:00,48.8,28.4,30.02,WSW,237,5.7,9.2,45,0.00,BKN,,0.00,WeatherDisplay:10.37,2013-10-25 19:19:00,
2013-10-25 15:24:00,48.2,28.4,30.02,West,273,6.2,9.0,46,0.00,BKN,,0.00,WeatherDisplay:10.37,2013-10-25 19:24:00,
2013-10-25 15:29:00,48.4,28.5,30.02,North,360,3.8,10.4,46,0.00,BKN,,0.00,WeatherDisplay:10.37,2013-10-25 19:29:00,
2013-10-25 15:34:00,48.5,28.1,30.02,SSE,157,2.1,3.5,45,0.00,BKN,,0.00,WeatherDisplay:10.37,2013-10-25 19:34:00,
2013-10-25 15:39:00,48.7,28.3,30.02,NE,49,2.8,6.9,45,0.00,BKN,,0.00,WeatherDisplay:10.37,2013-10-25 19:39:00,
2013-10-25 15:44:00,49.0,28.6,30.02,NNE,15,2.9,5.8,45,0.00,BKN,,0.00,WeatherDisplay:10.37,2013-10-25 19:44:00,
2013-10-25 15:49:00,49.2,27.6,30.02,WSW,248,4.7,6.0,43,0.00,BKN,,0.00,WeatherDisplay:10.37,2013-10-25 19:49:00,
2013-10-25 15:54:00,49.4,28.4,30.02,West,277,0.3,3.5,44,0.00,BKN,,0.00,WeatherDisplay:10.37,2013-10-25 19:54:00,
2013-10-25 15:59:00,49.5,28.5,30.02,NNE,22,3.0,4.0,44,0.00,BKN,,0.00,WeatherDisplay:10.37,2013-10-25 19:59:00,
2013-10-25 16:04:00,49.2,27.6,30.03,WNW,282,2.1,4.0,43,0.00,BKN,,0.00,WeatherDisplay:10.37,2013-10-25 20:04:00,
2013-10-25 16:09:00,48.9,27.4,30.03,NNW,335,4.2,10.4,43,0.00,BKN,,0.00,WeatherDisplay:10.37,2013-10-25 20:09:00,
2013-10-25 16:14:00,48.7,27.7,30.02,NNW,327,3.6,9.2,44,0.00,BKN,,0.00,WeatherDisplay:10.37,2013-10-25 20:14:00,
2013-10-25 16:19:00,48.7,27.7,30.03,North,5,3.9,12.7,44,0.00,FEW,,0.00,WeatherDisplay:10.37,2013-10-25 20:19:00,
2013-10-25 16:24:00,48.9,28.5,30.02,NW,308,1.2,3.5,45,0.00,FEW,,0.00,WeatherDisplay:10.37,2013-10-25 20:24:00,
2013-10-25 16:29:00,48.9,27.9,30.03,SE,135,4.2,8.1,44,0.00,FEW,,0.00,WeatherDisplay:10.37,2013-10-25 20:29:00,
2013-10-25 16:34:00,48.5,27.6,30.03,WSW,238,4.3,8.0,44,0.00,FEW,,0.00,WeatherDisplay:10.37,2013-10-25 20:34:00,
2013-10-25 16:39:00,48.0,27.1,30.03,WNW,298,3.3,9.2,44,0.00,FEW,,0.00,WeatherDisplay:10.37,2013-10-25 20:39:00,
2013-10-25 16:44:00,47.8,27.5,30.03,North,360,1.0,2.3,45,0.00,FEW,,0.00,WeatherDisplay:10.37,2013-10-25 20:44:00,
2013-10-25 16:49:00,47.6,27.8,30.03,West,267,2.4,4.6,46,0.00,FEW,,0.00,WeatherDisplay:10.37,2013-10-25 20:49:00,
2013-10-25 16:54:00,47.5,27.7,30.04,West,272,1.4,3.5,46,0.00,FEW,,0.00,WeatherDisplay:10.37,2013-10-25 20:54:00,
2013-10-25 16:59:00,47.5,28.3,30.03,NW,306,2.2,4.6,47,0.00,FEW,,0.00,WeatherDisplay:10.37,2013-10-25 20:59:00,
2013-10-25 17:04:00,47.4,28.2,30.04,NE,36,3.3,3.3,47,0.00,CLR,,0.00,WeatherDisplay:10.37,2013-10-25 21:04:00,
2013-10-25 17:09:00,47.2,28.0,30.04,West,278,1.9,5.8,47,0.00,CLR,,0.00,WeatherDisplay:10.37,2013-10-25 21:09:00,
2013-10-25 17:14:00,47.1,27.9,30.04,West,275,0.7,1.0,47,0.00,CLR,,0.00,WeatherDisplay:10.37,2013-10-25 21:14:00,
2013-10-25 17:19:00,47.0,28.3,30.04,West,262,1.3,2.3,48,0.00,CLR,,0.00,WeatherDisplay:10.37,2013-10-25 21:19:00,
2013-10-25 17:24:00,46.8,28.1,30.04,NW,313,1.3,3.5,48,0.00,CLR,,0.00,WeatherDisplay:10.37,2013-10-25 21:24:00,
2013-10-25 17:29:00,46.6,27.9,30.04,NNE,12,1.1,1.2,48,0.00,CLR,,0.00,WeatherDisplay:10.37,2013-10-25 21:29:00,
2013-10-25 17:34:00,46.4,27.8,30.05,West,266,0.4,3.5,48,0.00,CLR,,0.00,WeatherDisplay:10.37,2013-10-25 21:34:00,
2013-10-25 17:39:00,46.3,28.2,30.05,West,266,0.0,1.2,49,0.00,CLR,,0.00,WeatherDisplay:10.37,2013-10-25 21:39:00,
2013-10-25 17:44:00,46.0,27.9,30.05,NW,322,1.4,3.0,49,0.00,CLR,,0.00,WeatherDisplay:10.37,2013-10-25 21:44:00,
2013-10-25 17:49:00,45.7,28.1,30.05,NW,307,0.3,2.3,50,0.00,CLR,,0.00,WeatherDisplay:10.37,2013-10-25 21:49:00,
2013-10-25 17:54:00,45.4,28.3,30.05,WNW,288,0.2,2.3,51,0.00,CLR,,0.00,WeatherDisplay:10.37,2013-10-25 21:54:00,
2013-10-25 17:59:00,45.1,28.5,30.06,WNW,287,0.1,1.2,52,0.00,CLR,,0.00,WeatherDisplay:10.37,2013-10-25 21:59:00,
2013-10-25 18:04:00,44.8,28.7,30.06,WNW,284,0.5,4.6,53,0.00,SCT,,0.00,WeatherDisplay:10.37,2013-10-25 22:04:00,
2013-10-25 18:09:00,44.3,28.2,30.06,NW,312,0.1,1.2,53,0.00,SCT,,0.00,WeatherDisplay:10.37,2013-10-25 22:09:00,
2013-10-25 18:14:00,44.1,28.5,30.06,NW,312,0.0,1.2,54,0.00,SCT,,0.00,WeatherDisplay:10.37,2013-10-25 22:14:00,
2013-10-25 18:19:00,43.8,28.7,30.06,NW,312,0.0,0.0,55,0.00,SCT,,0.00,WeatherDisplay:10.37,2013-10-25 22:19:00,
2013-10-25 18:24:00,43.5,28.4,30.07,NW,312,0.0,1.2,55,0.00,SCT,,0.00,WeatherDisplay:10.37,2013-10-25 22:24:00,
2013-10-25 18:29:00,43.2,28.5,30.07,NW,312,0.0,0.0,56,0.00,SCT,,0.00,WeatherDisplay:10.37,2013-10-25 22:29:00,
2013-10-25 18:34:00,42.8,28.6,30.07,NW,312,0.0,0.0,57,0.00,SCT,,0.00,WeatherDisplay:10.37,2013-10-25 22:34:00,
2013-10-25 18:39:00,42.3,28.6,30.08,NW,312,0.2,1.2,58,0.00,SCT,,0.00,WeatherDisplay:10.37,2013-10-25 22:39:00,
2013-10-25 18:44:00,42.0,28.3,30.08,NW,312,1.2,2.3,58,0.00,SCT,,0.00,WeatherDisplay:10.37,2013-10-25 22:44:00,
2013-10-25 18:49:00,41.9,27.8,30.08,West,272,1.1,1.2,57,0.00,SCT,,0.00,WeatherDisplay:10.37,2013-10-25 22:49:00,
2013-10-25 18:54:00,42.1,27.5,30.09,WSW,254,2.3,3.5,56,0.00,SCT,,0.00,WeatherDisplay:10.37,2013-10-25 22:54:00,
2013-10-25 18:59:00,42.4,28.2,30.09,NW,307,3.2,3.2,57,0.00,SCT,,0.00,WeatherDisplay:10.37,2013-10-25 22:59:00,
2013-10-25 19:04:00,42.5,27.9,30.09,WNW,291,0.9,3.5,56,0.00,CLR,,0.00,WeatherDisplay:10.37,2013-10-25 23:04:00,
2013-10-25 19:09:00,42.5,27.9,30.09,WSW,252,0.0,0.0,56,0.00,CLR,,0.00,WeatherDisplay:10.37,2013-10-25 23:09:00,
2013-10-25 19:14:00,42.4,27.8,30.09,WSW,255,0.0,1.2,56,0.00,CLR,,0.00,WeatherDisplay:10.37,2013-10-25 23:14:00,
2013-10-25 19:19:00,42.2,27.6,30.10,South,175,0.5,1.2,56,0.00,CLR,,0.00,WeatherDisplay:10.37,2013-10-25 23:19:00,
2013-10-25 19:24:00,41.9,27.3,30.10,WNW,296,0.5,1.2,56,0.00,CLR,,0.00,WeatherDisplay:10.37,2013-10-25 23:24:00,
2013-10-25 19:29:00,41.7,27.6,30.10,West,259,1.1,3.5,57,0.00,CLR,,0.00,WeatherDisplay:10.37,2013-10-25 23:29:00,
2013-10-25 19:34:00,41.5,27.0,30.10,West,277,0.7,3.5,56,0.00,CLR,,0.00,WeatherDisplay:10.37,2013-10-25 23:34:00,
2013-10-25 19:39:00,41.5,27.4,30.11,West,277,0.1,2.3,57,0.00,CLR,,0.00,WeatherDisplay:10.37,2013-10-25 23:39:00,
2013-10-25 19:44:00,41.3,27.2,30.11,NW,308,0.1,2.3,57,0.00,CLR,,0.00,WeatherDisplay:10.37,2013-10-25 23:44:00,
2013-10-25 19:49:00,41.1,27.4,30.11,NW,308,0.0,0.0,58,0.00,CLR,,0.00,WeatherDisplay:10.37,2013-10-25 23:49:00,
2013-10-25 19:54:00,40.9,27.7,30.11,NW,308,0.0,0.0,59,0.00,CLR,,0.00,WeatherDisplay:10.37,2013-10-25 23:54:00,
2013-10-25 19:59:00,40.5,27.7,30.11,NW,308,0.0,0.0,60,0.00,CLR,,0.00,WeatherDisplay:10.37,2013-10-25 23:59:00,
2013-10-25 20:04:00,40.2,27.8,30.12,NW,308,0.0,0.0,61,0.00,CLR,,0.00,WeatherDisplay:10.37,2013-10-26 00:04:00,
2013-10-25 20:09:00,39.8,27.8,30.12,West,266,0.0,1.2,62,0.00,CLR,,0.00,WeatherDisplay:10.37,2013-10-26 00:09:00,
2013-10-25 20:14:00,39.4,27.8,30.12,West,266,0.0,0.0,63,0.00,CLR,,0.00,WeatherDisplay:10.37,2013-10-26 00:14:00,
2013-10-25 20:19:00,39.0,27.8,30.12,West,266,0.2,1.2,64,0.00,CLR,,0.00,WeatherDisplay:10.37,2013-10-26 00:19:00,
2013-10-25 20:24:00,38.6,27.8,30.12,West,266,0.0,0.0,65,0.00,CLR,,0.00,WeatherDisplay:10.37,2013-10-26 00:24:00,
2013-10-25 20:29:00,38.2,27.8,30.12,West,266,0.0,0.0,66,0.00,CLR,,0.00,WeatherDisplay:10.37,2013-10-26 00:29:00,
2013-10-25 20:34:00,37.8,27.8,30.12,West,266,0.0,0.0,67,0.00,CLR,,0.00,WeatherDisplay:10.37,2013-10-26 00:34:00,
2013-10-25 20:39:00,37.5,27.5,30.12,West,266,0.0,0.0,67,0.00,CLR,,0.00,WeatherDisplay:10.37,2013-10-26 00:39:00,
2013-10-25 20:44:00,37.2,27.6,30.12,West,266,0.0,0.0,68,0.00,CLR,,0.00,WeatherDisplay:10.37,2013-10-26 00:44:00,
2013-10-25 20:49:00,36.9,27.3,30.12,West,266,0.0,0.0,68,0.00,CLR,,0.00,WeatherDisplay:10.37,2013-10-26 00:49:00,
2013-10-25 20:54:00,36.6,27.4,30.12,West,266,0.1,1.2,69,0.00,CLR,,0.00,WeatherDisplay:10.37,2013-10-26 00:54:00,
2013-10-25 20:59:00,36.2,27.4,30.13,West,266,0.0,0.0,70,0.00,CLR,,0.00,WeatherDisplay:10.37,2013-10-26 00:59:00,
2013-10-25 21:04:00,36.0,27.5,30.13,West,266,0.0,0.0,71,0.00,CLR,,0.00,WeatherDisplay:10.37,2013-10-26 01:04:00,
2013-10-25 21:09:00,35.8,27.3,30.13,West,266,0.0,0.0,71,0.00,CLR,,0.00,WeatherDisplay:10.37,2013-10-26 01:09:00,
2013-10-25 21:14:00,35.5,27.4,30.13,West,266,0.0,0.0,72,0.00,CLR,,0.00,WeatherDisplay:10.37,2013-10-26 01:14:00,
2013-10-25 21:19:00,35.3,27.2,30.13,West,266,0.0,0.0,72,0.00,CLR,,0.00,WeatherDisplay:10.37,2013-10-26 01:19:00,
2013-10-25 21:24:00,35.0,27.2,30.13,West,266,0.0,0.0,73,0.00,CLR,,0.00,WeatherDisplay:10.37,2013-10-26 01:24:00,
2013-10-25 21:29:00,34.7,27.3,30.14,West,266,0.0,0.0,74,0.00,CLR,,0.00,WeatherDisplay:10.37,2013-10-26 01:29:00,
2013-10-25 21:34:00,34.5,27.1,30.13,West,266,0.0,0.0,74,0.00,CLR,,0.00,WeatherDisplay:10.37,2013-10-26 01:34:00,
2013-10-25 21:39:00,34.3,27.2,30.13,West,266,0.0,0.0,75,0.00,CLR,,0.00,WeatherDisplay:10.37,2013-10-26 01:39:00,
2013-10-25 21:44:00,34.1,27.0,30.14,West,266,0.0,0.0,75,0.00,CLR,,0.00,WeatherDisplay:10.37,2013-10-26 01:44:00,
2013-10-25 21:49:00,33.8,27.0,30.14,West,266,0.0,0.0,76,0.00,CLR,,0.00,WeatherDisplay:10.37,2013-10-26 01:49:00,
2013-10-25 21:54:00,33.5,27.1,30.14,West,266,0.0,0.0,77,0.00,CLR,,0.00,WeatherDisplay:10.37,2013-10-26 01:54:00,
2013-10-25 21:59:00,33.2,26.8,30.15,West,266,0.3,1.0,77,0.00,CLR,,0.00,WeatherDisplay:10.37,2013-10-26 01:59:00,
2013-10-25 22:04:00,32.9,26.8,30.15,West,266,0.0,0.0,78,0.00,CLR,,0.00,WeatherDisplay:10.37,2013-10-26 02:04:00,
2013-10-25 22:09:00,32.7,26.9,30.15,West,266,0.0,0.0,79,0.00,CLR,,0.00,WeatherDisplay:10.37,2013-10-26 02:09:00,
2013-10-25 22:14:00,32.5,27.0,30.15,West,266,0.8,1.2,80,0.00,CLR,,0.00,WeatherDisplay:10.37,2013-10-26 02:14:00,
2013-10-25 22:19:00,32.3,26.8,30.15,West,266,0.4,1.2,80,0.00,CLR,,0.00,WeatherDisplay:10.37,2013-10-26 02:19:00,
2013-10-25 22:24:00,32.0,26.5,30.15,West,266,0.0,0.0,80,0.00,CLR,,0.00,WeatherDisplay:10.37,2013-10-26 02:24:00,
2013-10-25 22:29:00,31.9,26.7,30.15,West,266,0.0,0.0,81,0.00,CLR,,0.00,WeatherDisplay:10.37,2013-10-26 02:29:00,
2013-10-25 22:34:00,31.7,26.8,30.15,West,266,0.5,1.2,82,0.00,CLR,,0.00,WeatherDisplay:10.37,2013-10-26 02:34:00,
2013-10-25 22:39:00,31.5,26.6,30.15,West,266,0.0,0.0,82,0.00,CLR,,0.00,WeatherDisplay:10.37,2013-10-26 02:39:00,
2013-10-25 22:44:00,31.3,26.4,30.15,West,266,0.0,0.0,82,0.00,CLR,,0.00,WeatherDisplay:10.37,2013-10-26 02:44:00,
2013-10-25 22:49:00,31.1,26.5,30.15,West,266,0.0,0.0,83,0.00,CLR,,0.00,WeatherDisplay:10.37,2013-10-26 02:49:00,
2013-10-25 22:54:00,31.0,26.4,30.15,West,266,0.0,0.0,83,0.00,CLR,,0.00,WeatherDisplay:10.37,2013-10-26 02:54:00,
2013-10-25 22:59:00,30.9,26.3,30.15,West,266,0.1,1.2,83,0.00,CLR,,0.00,WeatherDisplay:10.37,2013-10-26 02:59:00,
2013-10-25 23:04:00,30.7,26.1,30.15,West,266,0.4,1.2,83,0.00,CLR,,0.00,WeatherDisplay:10.37,2013-10-26 03:04:00,
2013-10-25 23:09:00,30.7,26.4,30.15,West,266,0.0,0.0,84,0.00,CLR,,0.00,WeatherDisplay:10.37,2013-10-26 03:09:00,
2013-10-25 23:14:00,30.6,26.3,30.15,West,266,0.0,0.0,84,0.00,CLR,,0.00,WeatherDisplay:10.37,2013-10-26 03:14:00,
2013-10-25 23:19:00,30.5,26.2,30.15,West,266,0.6,1.2,84,0.00,CLR,,0.00,WeatherDisplay:10.37,2013-10-26 03:19:00,
2013-10-25 23:24:00,30.5,26.2,30.15,West,266,0.0,0.0,84,0.00,CLR,,0.00,WeatherDisplay:10.37,2013-10-26 03:24:00,
2013-10-25 23:29:00,30.4,26.4,30.15,West,266,0.0,0.0,85,0.00,CLR,,0.00,WeatherDisplay:10.37,2013-10-26 03:29:00,
2013-10-25 23:34:00,30.3,26.3,30.15,West,266,0.0,1.2,85,0.00,CLR,,0.00,WeatherDisplay:10.37,2013-10-26 03:34:00,
2013-10-25 23:39:00,30.3,26.3,30.15,West,266,0.0,0.0,85,0.00,CLR,,0.00,WeatherDisplay:10.37,2013-10-26 03:39:00,
2013-10-25 23:44:00,30.2,26.2,30.15,West,266,0.0,0.0,85,0.00,CLR,,0.00,WeatherDisplay:10.37,2013-10-26 03:44:00,
2013-10-25 23:49:00,30.2,26.2,30.15,West,266,0.0,0.0,85,0.00,CLR,,0.00,WeatherDisplay:10.37,2013-10-26 03:49:00,
2013-10-25 23:54:00,30.3,26.3,30.15,West,266,0.0,0.0,85,0.00,CLR,,0.00,WeatherDisplay:10.37,2013-10-26 03:54:00,
2013-10-25 23:59:00,30.3,26.3,30.15,West,266,0.0,0.0,85,0.00,CLR,,0.00,WeatherDisplay:10.37,2013-10-26 03:59:00,